sensor_id;sensor_type;location;lat;lon;timestamp;P1;durP1;ratioP1;P2;durP2;ratioP2
25231;SDS011;13176;51.140;6.290;2024-02-15T00:01:18;451.38;;;418.48;;
25231;SDS011;13176;51.140;6.290;2024-02-15T00:03:44;465.00;;;432.15;;
25231;SDS011;13176;51.140;6.290;2024-02-15T00:06:28;384.00;;;358.77;;
25231;SDS011;13176;51.140;6.290;2024-02-15T00:08:55;377.38;;;351.73;;
25231;SDS011;13176;51.140;6.290;2024-02-15T00:11:21;393.83;;;367.30;;
25231;SDS011;13176;51.140;6.290;2024-02-15T00:13:48;436.83;;;403.48;;
25231;SDS011;13176;51.140;6.290;2024-02-15T00:16:14;368.92;;;344.85;;
25231;SDS011;13176;51.140;6.290;2024-02-15T00:18:41;347.33;;;325.13;;
25231;SDS011;13176;51.140;6.290;2024-02-15T00:21:08;326.50;;;304.67;;
25231;SDS011;13176;51.140;6.290;2024-02-15T00:23:34;295.40;;;276.80;;
25231;SDS011;13176;51.140;6.290;2024-02-15T00:26:01;263.27;;;246.68;;
25231;SDS011;13176;51.140;6.290;2024-02-15T00:28:28;248.63;;;233.88;;
25231;SDS011;13176;51.140;6.290;2024-02-15T00:30:54;254.48;;;239.77;;
25231;SDS011;13176;51.140;6.290;2024-02-15T00:33:21;274.20;;;257.63;;
25231;SDS011;13176;51.140;6.290;2024-02-15T00:35:48;289.17;;;271.83;;
25231;SDS011;13176;51.140;6.290;2024-02-15T00:38:18;252.25;;;236.65;;
25231;SDS011;13176;51.140;6.290;2024-02-15T00:40:45;214.25;;;201.27;;
25231;SDS011;13176;51.140;6.290;2024-02-15T00:43:12;211.15;;;198.85;;
25231;SDS011;13176;51.140;6.290;2024-02-15T00:45:39;219.20;;;205.95;;
25231;SDS011;13176;51.140;6.290;2024-02-15T00:48:06;163.95;;;154.48;;
25231;SDS011;13176;51.140;6.290;2024-02-15T00:50:33;157.90;;;148.70;;
25231;SDS011;13176;51.140;6.290;2024-02-15T00:53:00;148.43;;;139.75;;
25231;SDS011;13176;51.140;6.290;2024-02-15T00:55:26;129.30;;;121.35;;
25231;SDS011;13176;51.140;6.290;2024-02-15T00:57:53;131.13;;;123.32;;
25231;SDS011;13176;51.140;6.290;2024-02-15T01:00:19;119.30;;;112.18;;
25231;SDS011;13176;51.140;6.290;2024-02-15T01:02:47;99.78;;;93.10;;
25231;SDS011;13176;51.140;6.290;2024-02-15T01:05:13;113.05;;;106.35;;
25231;SDS011;13176;51.140;6.290;2024-02-15T01:07:41;108.35;;;101.63;;
25231;SDS011;13176;51.140;6.290;2024-02-15T01:10:08;105.13;;;98.50;;
25231;SDS011;13176;51.140;6.290;2024-02-15T01:12:35;103.40;;;97.20;;
25231;SDS011;13176;51.140;6.290;2024-02-15T01:15:01;103.00;;;96.60;;
25231;SDS011;13176;51.140;6.290;2024-02-15T01:17:29;96.75;;;90.35;;
25231;SDS011;13176;51.140;6.290;2024-02-15T01:19:56;85.47;;;80.30;;
25231;SDS011;13176;51.140;6.290;2024-02-15T01:22:22;100.57;;;94.43;;
25231;SDS011;13176;51.140;6.290;2024-02-15T01:24:51;98.03;;;92.43;;
25231;SDS011;13176;51.140;6.290;2024-02-15T01:27:18;96.35;;;90.50;;
25231;SDS011;13176;51.140;6.290;2024-02-15T01:29:44;92.32;;;86.78;;
25231;SDS011;13176;51.140;6.290;2024-02-15T01:32:11;85.15;;;79.78;;
25231;SDS011;13176;51.140;6.290;2024-02-15T01:34:38;89.32;;;83.72;;
25231;SDS011;13176;51.140;6.290;2024-02-15T01:37:04;80.03;;;75.00;;
25231;SDS011;13176;51.140;6.290;2024-02-15T01:39:31;85.90;;;80.38;;
25231;SDS011;13176;51.140;6.290;2024-02-15T01:41:58;85.50;;;80.38;;
25231;SDS011;13176;51.140;6.290;2024-02-15T01:44:25;92.43;;;86.93;;
25231;SDS011;13176;51.140;6.290;2024-02-15T01:46:52;91.13;;;85.60;;
25231;SDS011;13176;51.140;6.290;2024-02-15T01:49:23;85.15;;;79.75;;
25231;SDS011;13176;51.140;6.290;2024-02-15T01:51:51;78.18;;;72.95;;
25231;SDS011;13176;51.140;6.290;2024-02-15T01:54:20;75.90;;;71.13;;
25231;SDS011;13176;51.140;6.290;2024-02-15T01:56:47;77.03;;;72.30;;
25231;SDS011;13176;51.140;6.290;2024-02-15T01:59:14;69.28;;;65.10;;
25231;SDS011;13176;51.140;6.290;2024-02-15T02:01:42;66.78;;;62.63;;
25231;SDS011;13176;51.140;6.290;2024-02-15T02:04:09;66.35;;;62.13;;
25231;SDS011;13176;51.140;6.290;2024-02-15T02:06:38;64.22;;;59.95;;
25231;SDS011;13176;51.140;6.290;2024-02-15T02:09:05;65.53;;;61.13;;
25231;SDS011;13176;51.140;6.290;2024-02-15T02:11:31;57.40;;;53.47;;
25231;SDS011;13176;51.140;6.290;2024-02-15T02:13:59;59.30;;;55.85;;
25231;SDS011;13176;51.140;6.290;2024-02-15T02:18:56;57.53;;;54.10;;
25231;SDS011;13176;51.140;6.290;2024-02-15T02:21:23;53.35;;;49.55;;
25231;SDS011;13176;51.140;6.290;2024-02-15T02:24:04;48.50;;;45.20;;
25231;SDS011;13176;51.140;6.290;2024-02-15T02:26:39;43.03;;;39.88;;
25231;SDS011;13176;51.140;6.290;2024-02-15T02:29:06;44.13;;;40.97;;
25231;SDS011;13176;51.140;6.290;2024-02-15T02:31:33;43.55;;;40.40;;
25231;SDS011;13176;51.140;6.290;2024-02-15T02:34:00;47.58;;;44.58;;
25231;SDS011;13176;51.140;6.290;2024-02-15T02:36:27;49.20;;;45.50;;
25231;SDS011;13176;51.140;6.290;2024-02-15T02:38:55;46.90;;;43.42;;
25231;SDS011;13176;51.140;6.290;2024-02-15T02:41:27;44.15;;;41.10;;
25231;SDS011;13176;51.140;6.290;2024-02-15T02:43:55;43.70;;;41.05;;
25231;SDS011;13176;51.140;6.290;2024-02-15T02:46:23;46.30;;;43.08;;
25231;SDS011;13176;51.140;6.290;2024-02-15T02:48:49;46.33;;;43.28;;
25231;SDS011;13176;51.140;6.290;2024-02-15T02:51:16;46.65;;;43.53;;
25231;SDS011;13176;51.140;6.290;2024-02-15T02:53:43;47.53;;;44.40;;
25231;SDS011;13176;51.140;6.290;2024-02-15T02:56:10;47.70;;;44.35;;
25231;SDS011;13176;51.140;6.290;2024-02-15T02:58:37;47.15;;;43.72;;
25231;SDS011;13176;51.140;6.290;2024-02-15T03:01:03;44.08;;;41.40;;
25231;SDS011;13176;51.140;6.290;2024-02-15T03:03:30;46.03;;;42.53;;
25231;SDS011;13176;51.140;6.290;2024-02-15T03:05:56;48.92;;;45.55;;
25231;SDS011;13176;51.140;6.290;2024-02-15T03:08:24;46.20;;;43.40;;
25231;SDS011;13176;51.140;6.290;2024-02-15T03:10:51;44.40;;;41.75;;
25231;SDS011;13176;51.140;6.290;2024-02-15T03:13:18;43.22;;;40.13;;
25231;SDS011;13176;51.140;6.290;2024-02-15T03:15:45;45.00;;;41.90;;
25231;SDS011;13176;51.140;6.290;2024-02-15T03:18:17;42.78;;;39.90;;
25231;SDS011;13176;51.140;6.290;2024-02-15T03:20:43;43.58;;;40.45;;
25231;SDS011;13176;51.140;6.290;2024-02-15T03:23:10;39.67;;;36.78;;
25231;SDS011;13176;51.140;6.290;2024-02-15T03:25:38;40.05;;;37.50;;
25231;SDS011;13176;51.140;6.290;2024-02-15T03:28:04;41.67;;;38.88;;
25231;SDS011;13176;51.140;6.290;2024-02-15T03:30:31;42.67;;;39.88;;
25231;SDS011;13176;51.140;6.290;2024-02-15T03:33:00;38.13;;;35.53;;
25231;SDS011;13176;51.140;6.290;2024-02-15T03:35:32;38.30;;;35.65;;
25231;SDS011;13176;51.140;6.290;2024-02-15T03:37:58;39.05;;;36.08;;
25231;SDS011;13176;51.140;6.290;2024-02-15T03:40:26;36.65;;;34.35;;
25231;SDS011;13176;51.140;6.290;2024-02-15T03:42:53;31.95;;;29.80;;
25231;SDS011;13176;51.140;6.290;2024-02-15T03:45:20;30.80;;;28.92;;
25231;SDS011;13176;51.140;6.290;2024-02-15T03:47:47;31.23;;;29.08;;
25231;SDS011;13176;51.140;6.290;2024-02-15T03:50:16;30.55;;;28.50;;
25231;SDS011;13176;51.140;6.290;2024-02-15T03:52:45;29.15;;;26.92;;
25231;SDS011;13176;51.140;6.290;2024-02-15T03:55:12;30.48;;;28.38;;
25231;SDS011;13176;51.140;6.290;2024-02-15T03:57:39;28.27;;;26.27;;
25231;SDS011;13176;51.140;6.290;2024-02-15T04:05:15;22.00;;;20.27;;
25231;SDS011;13176;51.140;6.290;2024-02-15T04:07:44;24.48;;;23.08;;
25231;SDS011;13176;51.140;6.290;2024-02-15T04:10:11;25.42;;;23.80;;
25231;SDS011;13176;51.140;6.290;2024-02-15T04:12:38;28.15;;;25.80;;
25231;SDS011;13176;51.140;6.290;2024-02-15T04:15:08;27.38;;;25.63;;
25231;SDS011;13176;51.140;6.290;2024-02-15T04:17:40;27.60;;;25.70;;
25231;SDS011;13176;51.140;6.290;2024-02-15T04:20:07;29.15;;;27.13;;
25231;SDS011;13176;51.140;6.290;2024-02-15T04:22:35;28.10;;;26.25;;
25231;SDS011;13176;51.140;6.290;2024-02-15T04:25:05;28.88;;;27.02;;
25231;SDS011;13176;51.140;6.290;2024-02-15T04:27:33;27.90;;;26.20;;
25231;SDS011;13176;51.140;6.290;2024-02-15T04:29:59;27.30;;;25.45;;
25231;SDS011;13176;51.140;6.290;2024-02-15T04:32:26;27.33;;;25.52;;
25231;SDS011;13176;51.140;6.290;2024-02-15T04:34:55;26.13;;;24.60;;
25231;SDS011;13176;51.140;6.290;2024-02-15T04:37:21;26.80;;;25.08;;
25231;SDS011;13176;51.140;6.290;2024-02-15T04:39:49;28.45;;;26.30;;
25231;SDS011;13176;51.140;6.290;2024-02-15T04:42:15;26.50;;;24.48;;
25231;SDS011;13176;51.140;6.290;2024-02-15T04:44:44;26.17;;;24.75;;
25231;SDS011;13176;51.140;6.290;2024-02-15T04:47:11;26.55;;;24.75;;
25231;SDS011;13176;51.140;6.290;2024-02-15T04:49:37;28.60;;;26.42;;
25231;SDS011;13176;51.140;6.290;2024-02-15T04:52:04;25.05;;;23.38;;
25231;SDS011;13176;51.140;6.290;2024-02-15T04:54:32;27.33;;;25.58;;
25231;SDS011;13176;51.140;6.290;2024-02-15T04:56:59;25.85;;;24.23;;
25231;SDS011;13176;51.140;6.290;2024-02-15T04:59:27;26.90;;;25.23;;
25231;SDS011;13176;51.140;6.290;2024-02-15T05:01:55;25.70;;;23.98;;
25231;SDS011;13176;51.140;6.290;2024-02-15T05:04:24;25.63;;;23.88;;
25231;SDS011;13176;51.140;6.290;2024-02-15T05:06:51;26.35;;;24.38;;
25231;SDS011;13176;51.140;6.290;2024-02-15T05:09:19;27.83;;;25.92;;
25231;SDS011;13176;51.140;6.290;2024-02-15T05:11:46;25.58;;;23.98;;
25231;SDS011;13176;51.140;6.290;2024-02-15T05:14:14;27.00;;;24.98;;
25231;SDS011;13176;51.140;6.290;2024-02-15T05:16:45;26.75;;;24.90;;
25231;SDS011;13176;51.140;6.290;2024-02-15T05:19:28;27.25;;;25.45;;
25231;SDS011;13176;51.140;6.290;2024-02-15T05:22:11;24.92;;;23.50;;
25231;SDS011;13176;51.140;6.290;2024-02-15T05:24:39;27.80;;;26.15;;
25231;SDS011;13176;51.140;6.290;2024-02-15T05:27:06;24.98;;;23.38;;
25231;SDS011;13176;51.140;6.290;2024-02-15T05:29:32;24.60;;;22.83;;
25231;SDS011;13176;51.140;6.290;2024-02-15T05:32:01;25.63;;;24.05;;
25231;SDS011;13176;51.140;6.290;2024-02-15T05:34:28;25.00;;;23.52;;
25231;SDS011;13176;51.140;6.290;2024-02-15T05:36:56;24.70;;;23.25;;
25231;SDS011;13176;51.140;6.290;2024-02-15T05:39:23;25.45;;;23.95;;
25231;SDS011;13176;51.140;6.290;2024-02-15T05:41:49;24.75;;;23.25;;
25231;SDS011;13176;51.140;6.290;2024-02-15T05:44:16;25.30;;;23.80;;
25231;SDS011;13176;51.140;6.290;2024-02-15T05:46:46;24.45;;;22.70;;
25231;SDS011;13176;51.140;6.290;2024-02-15T05:49:13;25.70;;;24.20;;
25231;SDS011;13176;51.140;6.290;2024-02-15T05:51:43;24.77;;;23.20;;
25231;SDS011;13176;51.140;6.290;2024-02-15T05:54:11;27.27;;;25.67;;
25231;SDS011;13176;51.140;6.290;2024-02-15T05:56:38;25.17;;;23.77;;
25231;SDS011;13176;51.140;6.290;2024-02-15T05:59:06;27.30;;;25.30;;
25231;SDS011;13176;51.140;6.290;2024-02-15T06:01:36;26.90;;;25.27;;
25231;SDS011;13176;51.140;6.290;2024-02-15T06:04:05;27.73;;;26.05;;
25231;SDS011;13176;51.140;6.290;2024-02-15T06:06:35;31.20;;;29.25;;
25231;SDS011;13176;51.140;6.290;2024-02-15T06:09:01;31.90;;;29.63;;
25231;SDS011;13176;51.140;6.290;2024-02-15T06:11:29;31.52;;;29.63;;
25231;SDS011;13176;51.140;6.290;2024-02-15T06:13:56;30.80;;;28.58;;
25231;SDS011;13176;51.140;6.290;2024-02-15T06:16:24;34.67;;;32.47;;
25231;SDS011;13176;51.140;6.290;2024-02-15T06:18:51;33.65;;;31.58;;
25231;SDS011;13176;51.140;6.290;2024-02-15T06:21:17;33.10;;;31.10;;
25231;SDS011;13176;51.140;6.290;2024-02-15T06:23:46;35.58;;;33.38;;
25231;SDS011;13176;51.140;6.290;2024-02-15T06:26:14;34.85;;;32.92;;
25231;SDS011;13176;51.140;6.290;2024-02-15T06:28:41;34.80;;;32.70;;
25231;SDS011;13176;51.140;6.290;2024-02-15T06:31:26;30.77;;;28.98;;
25231;SDS011;13176;51.140;6.290;2024-02-15T06:34:10;32.83;;;30.73;;
25231;SDS011;13176;51.140;6.290;2024-02-15T06:36:56;33.85;;;31.83;;
25231;SDS011;13176;51.140;6.290;2024-02-15T06:39:41;31.83;;;29.92;;
25231;SDS011;13176;51.140;6.290;2024-02-15T06:42:10;33.97;;;31.63;;
25231;SDS011;13176;51.140;6.290;2024-02-15T06:44:46;34.92;;;32.67;;
25231;SDS011;13176;51.140;6.290;2024-02-15T06:47:14;32.60;;;30.35;;
25231;SDS011;13176;51.140;6.290;2024-02-15T06:49:45;34.92;;;32.88;;
25231;SDS011;13176;51.140;6.290;2024-02-15T06:52:12;31.60;;;29.63;;
25231;SDS011;13176;51.140;6.290;2024-02-15T06:54:40;34.58;;;32.22;;
25231;SDS011;13176;51.140;6.290;2024-02-15T06:57:07;33.42;;;31.35;;
25231;SDS011;13176;51.140;6.290;2024-02-15T06:59:34;34.50;;;32.30;;
25231;SDS011;13176;51.140;6.290;2024-02-15T07:02:01;36.67;;;34.45;;
25231;SDS011;13176;51.140;6.290;2024-02-15T07:04:31;36.58;;;34.08;;
25231;SDS011;13176;51.140;6.290;2024-02-15T07:06:58;35.80;;;33.55;;
25231;SDS011;13176;51.140;6.290;2024-02-15T07:09:26;35.15;;;33.08;;
25231;SDS011;13176;51.140;6.290;2024-02-15T07:11:53;34.30;;;32.20;;
25231;SDS011;13176;51.140;6.290;2024-02-15T07:14:20;35.10;;;33.00;;
25231;SDS011;13176;51.140;6.290;2024-02-15T07:16:47;38.05;;;35.70;;
25231;SDS011;13176;51.140;6.290;2024-02-15T07:19:15;36.85;;;34.75;;
25231;SDS011;13176;51.140;6.290;2024-02-15T07:21:43;43.10;;;40.45;;
25231;SDS011;13176;51.140;6.290;2024-02-15T07:24:10;44.03;;;41.42;;
25231;SDS011;13176;51.140;6.290;2024-02-15T07:26:36;48.95;;;46.10;;
25231;SDS011;13176;51.140;6.290;2024-02-15T07:29:03;51.20;;;48.17;;
25231;SDS011;13176;51.140;6.290;2024-02-15T07:31:34;56.05;;;52.70;;
25231;SDS011;13176;51.140;6.290;2024-02-15T07:34:00;56.47;;;53.30;;
25231;SDS011;13176;51.140;6.290;2024-02-15T07:36:27;63.13;;;59.10;;
25231;SDS011;13176;51.140;6.290;2024-02-15T07:38:54;61.70;;;58.25;;
25231;SDS011;13176;51.140;6.290;2024-02-15T07:41:24;62.70;;;58.92;;
25231;SDS011;13176;51.140;6.290;2024-02-15T07:43:50;66.13;;;62.50;;
25231;SDS011;13176;51.140;6.290;2024-02-15T07:46:20;63.75;;;60.00;;
25231;SDS011;13176;51.140;6.290;2024-02-15T07:48:47;67.53;;;63.53;;
25231;SDS011;13176;51.140;6.290;2024-02-15T07:51:16;73.97;;;69.65;;
25231;SDS011;13176;51.140;6.290;2024-02-15T07:53:44;71.75;;;67.72;;
25231;SDS011;13176;51.140;6.290;2024-02-15T07:56:12;78.65;;;73.97;;
25231;SDS011;13176;51.140;6.290;2024-02-15T07:58:43;86.45;;;81.40;;
25231;SDS011;13176;51.140;6.290;2024-02-15T08:01:19;88.88;;;83.47;;
25231;SDS011;13176;51.140;6.290;2024-02-15T08:03:51;90.50;;;85.18;;
25231;SDS011;13176;51.140;6.290;2024-02-15T08:06:20;104.38;;;98.20;;
25231;SDS011;13176;51.140;6.290;2024-02-15T08:08:48;105.03;;;98.70;;
25231;SDS011;13176;51.140;6.290;2024-02-15T08:11:17;106.20;;;100.07;;
25231;SDS011;13176;51.140;6.290;2024-02-15T08:13:45;105.85;;;99.68;;
25231;SDS011;13176;51.140;6.290;2024-02-15T08:16:14;110.75;;;104.53;;
25231;SDS011;13176;51.140;6.290;2024-02-15T08:18:43;102.95;;;96.60;;
25231;SDS011;13176;51.140;6.290;2024-02-15T08:21:13;102.88;;;96.85;;
25231;SDS011;13176;51.140;6.290;2024-02-15T08:23:41;100.25;;;94.57;;
25231;SDS011;13176;51.140;6.290;2024-02-15T08:26:08;109.97;;;103.75;;
25231;SDS011;13176;51.140;6.290;2024-02-15T08:28:37;97.47;;;91.63;;
25231;SDS011;13176;51.140;6.290;2024-02-15T08:31:04;94.78;;;89.07;;
25231;SDS011;13176;51.140;6.290;2024-02-15T08:33:30;95.47;;;90.05;;
25231;SDS011;13176;51.140;6.290;2024-02-15T08:35:57;95.15;;;89.07;;
25231;SDS011;13176;51.140;6.290;2024-02-15T08:38:24;83.13;;;78.25;;
25231;SDS011;13176;51.140;6.290;2024-02-15T08:40:51;83.00;;;78.35;;
25231;SDS011;13176;51.140;6.290;2024-02-15T08:43:17;78.55;;;73.75;;
25231;SDS011;13176;51.140;6.290;2024-02-15T08:45:44;77.85;;;73.32;;
25231;SDS011;13176;51.140;6.290;2024-02-15T08:48:11;82.25;;;77.22;;
25231;SDS011;13176;51.140;6.290;2024-02-15T08:50:38;77.68;;;73.13;;
25231;SDS011;13176;51.140;6.290;2024-02-15T08:53:07;71.20;;;67.00;;
25231;SDS011;13176;51.140;6.290;2024-02-15T08:55:34;70.55;;;66.50;;
25231;SDS011;13176;51.140;6.290;2024-02-15T08:58:02;70.95;;;66.88;;
25231;SDS011;13176;51.140;6.290;2024-02-15T09:00:30;65.40;;;61.63;;
25231;SDS011;13176;51.140;6.290;2024-02-15T09:02:57;70.68;;;66.53;;
25231;SDS011;13176;51.140;6.290;2024-02-15T09:05:24;67.25;;;63.22;;
25231;SDS011;13176;51.140;6.290;2024-02-15T09:07:51;69.30;;;65.13;;
25231;SDS011;13176;51.140;6.290;2024-02-15T09:10:18;69.85;;;65.60;;
25231;SDS011;13176;51.140;6.290;2024-02-15T09:12:45;66.43;;;62.47;;
25231;SDS011;13176;51.140;6.290;2024-02-15T09:15:17;66.68;;;62.92;;
25231;SDS011;13176;51.140;6.290;2024-02-15T09:17:44;73.72;;;69.32;;
25231;SDS011;13176;51.140;6.290;2024-02-15T09:20:14;67.70;;;63.63;;
25231;SDS011;13176;51.140;6.290;2024-02-15T09:22:48;68.70;;;64.43;;
25231;SDS011;13176;51.140;6.290;2024-02-15T09:25:16;64.38;;;60.40;;
25231;SDS011;13176;51.140;6.290;2024-02-15T09:27:46;54.50;;;51.22;;
25231;SDS011;13176;51.140;6.290;2024-02-15T09:30:13;55.85;;;52.30;;
25231;SDS011;13176;51.140;6.290;2024-02-15T09:32:41;61.42;;;57.80;;
25231;SDS011;13176;51.140;6.290;2024-02-15T09:35:10;62.95;;;59.10;;
25231;SDS011;13176;51.140;6.290;2024-02-15T09:37:44;64.93;;;61.22;;
25231;SDS011;13176;51.140;6.290;2024-02-15T09:40:12;60.03;;;56.63;;
25231;SDS011;13176;51.140;6.290;2024-02-15T09:42:41;76.75;;;72.25;;
25231;SDS011;13176;51.140;6.290;2024-02-15T09:45:13;75.95;;;71.53;;
25231;SDS011;13176;51.140;6.290;2024-02-15T09:47:44;63.47;;;59.45;;
25231;SDS011;13176;51.140;6.290;2024-02-15T09:50:12;63.85;;;60.20;;
25231;SDS011;13176;51.140;6.290;2024-02-15T09:52:42;60.75;;;57.10;;
25231;SDS011;13176;51.140;6.290;2024-02-15T09:55:15;60.95;;;57.53;;
25231;SDS011;13176;51.140;6.290;2024-02-15T09:57:43;60.33;;;56.70;;
25231;SDS011;13176;51.140;6.290;2024-02-15T10:00:10;62.55;;;58.83;;
25231;SDS011;13176;51.140;6.290;2024-02-15T10:02:46;54.88;;;51.55;;
25231;SDS011;13176;51.140;6.290;2024-02-15T10:05:14;55.90;;;52.70;;
25231;SDS011;13176;51.140;6.290;2024-02-15T10:07:45;52.63;;;49.42;;
25231;SDS011;13176;51.140;6.290;2024-02-15T10:10:19;61.15;;;57.15;;
25231;SDS011;13176;51.140;6.290;2024-02-15T10:12:48;59.17;;;55.55;;
25231;SDS011;13176;51.140;6.290;2024-02-15T10:15:30;68.15;;;64.25;;
25231;SDS011;13176;51.140;6.290;2024-02-15T10:18:00;67.00;;;63.17;;
25231;SDS011;13176;51.140;6.290;2024-02-15T10:20:28;69.97;;;65.63;;
25231;SDS011;13176;51.140;6.290;2024-02-15T10:25:25;69.13;;;65.13;;
25231;SDS011;13176;51.140;6.290;2024-02-15T10:28:01;73.43;;;69.20;;
25231;SDS011;13176;51.140;6.290;2024-02-15T10:30:28;76.75;;;71.97;;
25231;SDS011;13176;51.140;6.290;2024-02-15T10:32:55;98.63;;;93.03;;
25231;SDS011;13176;51.140;6.290;2024-02-15T10:35:23;106.82;;;100.75;;
25231;SDS011;13176;51.140;6.290;2024-02-15T10:37:50;123.65;;;116.85;;
25231;SDS011;13176;51.140;6.290;2024-02-15T10:40:17;119.47;;;112.57;;
25231;SDS011;13176;51.140;6.290;2024-02-15T10:42:48;113.95;;;107.55;;
25231;SDS011;13176;51.140;6.290;2024-02-15T10:45:17;55.28;;;52.13;;
25231;SDS011;13176;51.140;6.290;2024-02-15T10:47:45;44.97;;;42.53;;
25231;SDS011;13176;51.140;6.290;2024-02-15T10:50:14;39.72;;;37.45;;
25231;SDS011;13176;51.140;6.290;2024-02-15T10:52:43;38.67;;;36.55;;
25231;SDS011;13176;51.140;6.290;2024-02-15T10:55:44;34.60;;;32.60;;
25231;SDS011;13176;51.140;6.290;2024-02-15T10:58:13;30.40;;;28.60;;
25231;SDS011;13176;51.140;6.290;2024-02-15T11:00:45;38.60;;;36.38;;
25231;SDS011;13176;51.140;6.290;2024-02-15T11:03:16;40.35;;;37.97;;
25231;SDS011;13176;51.140;6.290;2024-02-15T11:05:51;48.13;;;45.35;;
25231;SDS011;13176;51.140;6.290;2024-02-15T11:08:24;37.45;;;35.35;;
25231;SDS011;13176;51.140;6.290;2024-02-15T11:10:50;42.72;;;40.33;;
25231;SDS011;13176;51.140;6.290;2024-02-15T11:13:19;31.13;;;29.33;;
25231;SDS011;13176;51.140;6.290;2024-02-15T11:15:46;31.38;;;29.25;;
25231;SDS011;13176;51.140;6.290;2024-02-15T11:18:58;36.13;;;33.95;;
25231;SDS011;13176;51.140;6.290;2024-02-15T11:21:15;32.53;;;30.52;;
25231;SDS011;13176;51.140;6.290;2024-02-15T11:23:43;26.77;;;25.20;;
25231;SDS011;13176;51.140;6.290;2024-02-15T11:40:20;16.67;;;15.68;;
25231;SDS011;13176;51.140;6.290;2024-02-15T11:42:52;16.50;;;15.60;;
25231;SDS011;13176;51.140;6.290;2024-02-15T11:45:20;18.38;;;17.42;;
25231;SDS011;13176;51.140;6.290;2024-02-15T11:47:48;17.83;;;16.83;;
25231;SDS011;13176;51.140;6.290;2024-02-15T11:50:17;18.20;;;17.25;;
25231;SDS011;13176;51.140;6.290;2024-02-15T11:52:45;19.23;;;18.20;;
25231;SDS011;13176;51.140;6.290;2024-02-15T11:55:17;21.23;;;20.13;;
25231;SDS011;13176;51.140;6.290;2024-02-15T12:00:37;18.80;;;17.80;;
25231;SDS011;13176;51.140;6.290;2024-02-15T12:03:24;19.27;;;17.90;;
25231;SDS011;13176;51.140;6.290;2024-02-15T12:06:27;21.10;;;20.05;;
25231;SDS011;13176;51.140;6.290;2024-02-15T12:09:13;20.92;;;19.55;;
25231;SDS011;13176;51.140;6.290;2024-02-15T12:12:03;20.67;;;19.52;;
25231;SDS011;13176;51.140;6.290;2024-02-15T12:14:48;22.67;;;21.27;;
25231;SDS011;13176;51.140;6.290;2024-02-15T12:17:33;21.65;;;20.27;;
25231;SDS011;13176;51.140;6.290;2024-02-15T12:20:18;20.23;;;19.13;;
25231;SDS011;13176;51.140;6.290;2024-02-15T12:22:51;20.35;;;19.13;;
25231;SDS011;13176;51.140;6.290;2024-02-15T12:25:19;22.23;;;21.02;;
25231;SDS011;13176;51.140;6.290;2024-02-15T12:27:54;18.73;;;17.55;;
25231;SDS011;13176;51.140;6.290;2024-02-15T12:30:22;17.17;;;16.27;;
25231;SDS011;13176;51.140;6.290;2024-02-15T12:32:49;17.05;;;15.73;;
25231;SDS011;13176;51.140;6.290;2024-02-15T12:35:19;18.58;;;17.25;;
25231;SDS011;13176;51.140;6.290;2024-02-15T12:37:47;20.98;;;19.80;;
25231;SDS011;13176;51.140;6.290;2024-02-15T12:40:15;18.38;;;17.40;;
25231;SDS011;13176;51.140;6.290;2024-02-15T12:42:44;18.42;;;17.33;;
25231;SDS011;13176;51.140;6.290;2024-02-15T12:45:22;17.92;;;16.92;;
25231;SDS011;13176;51.140;6.290;2024-02-15T12:47:54;18.65;;;17.55;;
25231;SDS011;13176;51.140;6.290;2024-02-15T12:50:30;21.05;;;19.80;;
25231;SDS011;13176;51.140;6.290;2024-02-15T12:52:57;20.63;;;19.42;;
25231;SDS011;13176;51.140;6.290;2024-02-15T12:55:34;19.23;;;18.23;;
25231;SDS011;13176;51.140;6.290;2024-02-15T12:58:05;20.02;;;18.63;;
25231;SDS011;13176;51.140;6.290;2024-02-15T13:00:40;20.00;;;18.80;;
25231;SDS011;13176;51.140;6.290;2024-02-15T13:03:08;20.50;;;19.30;;
25231;SDS011;13176;51.140;6.290;2024-02-15T13:05:37;19.23;;;18.23;;
25231;SDS011;13176;51.140;6.290;2024-02-15T13:08:05;21.73;;;20.52;;
25231;SDS011;13176;51.140;6.290;2024-02-15T13:10:36;20.88;;;19.70;;
25231;SDS011;13176;51.140;6.290;2024-02-15T13:13:05;20.40;;;19.33;;
25231;SDS011;13176;51.140;6.290;2024-02-15T13:15:32;19.63;;;18.63;;
25231;SDS011;13176;51.140;6.290;2024-02-15T13:18:02;19.25;;;18.13;;
25231;SDS011;13176;51.140;6.290;2024-02-15T13:20:32;23.30;;;21.90;;
25231;SDS011;13176;51.140;6.290;2024-02-15T13:23:01;20.33;;;19.23;;
25231;SDS011;13176;51.140;6.290;2024-02-15T13:25:35;18.80;;;17.80;;
25231;SDS011;13176;51.140;6.290;2024-02-15T13:28:09;18.55;;;17.48;;
25231;SDS011;13176;51.140;6.290;2024-02-15T13:30:40;19.85;;;18.70;;
25231;SDS011;13176;51.140;6.290;2024-02-15T13:33:09;19.88;;;18.70;;
25231;SDS011;13176;51.140;6.290;2024-02-15T13:35:36;16.17;;;15.10;;
25231;SDS011;13176;51.140;6.290;2024-02-15T13:38:03;18.50;;;17.48;;
25231;SDS011;13176;51.140;6.290;2024-02-15T13:40:29;19.25;;;18.20;;
25231;SDS011;13176;51.140;6.290;2024-02-15T13:42:58;19.23;;;18.02;;
25231;SDS011;13176;51.140;6.290;2024-02-15T13:45:30;20.08;;;18.98;;
25231;SDS011;13176;51.140;6.290;2024-02-15T13:48:00;20.50;;;19.42;;
25231;SDS011;13176;51.140;6.290;2024-02-15T13:50:31;19.50;;;18.40;;
25231;SDS011;13176;51.140;6.290;2024-02-15T13:52:57;20.05;;;18.92;;
25231;SDS011;13176;51.140;6.290;2024-02-15T13:55:25;21.77;;;20.40;;
25231;SDS011;13176;51.140;6.290;2024-02-15T13:57:52;19.75;;;18.75;;
25231;SDS011;13176;51.140;6.290;2024-02-15T14:00:19;20.58;;;19.38;;
25231;SDS011;13176;51.140;6.290;2024-02-15T14:02:50;21.73;;;20.52;;
25231;SDS011;13176;51.140;6.290;2024-02-15T14:05:21;20.90;;;19.80;;
25231;SDS011;13176;51.140;6.290;2024-02-15T14:07:55;20.83;;;19.63;;
25231;SDS011;13176;51.140;6.290;2024-02-15T14:10:23;20.55;;;19.40;;
25231;SDS011;13176;51.140;6.290;2024-02-15T14:12:51;21.15;;;19.80;;
25231;SDS011;13176;51.140;6.290;2024-02-15T14:15:18;21.25;;;20.00;;
25231;SDS011;13176;51.140;6.290;2024-02-15T14:17:45;21.48;;;20.20;;
25231;SDS011;13176;51.140;6.290;2024-02-15T14:20:12;20.25;;;19.15;;
25231;SDS011;13176;51.140;6.290;2024-02-15T14:22:45;18.10;;;16.85;;
25231;SDS011;13176;51.140;6.290;2024-02-15T14:25:15;19.90;;;18.60;;
25231;SDS011;13176;51.140;6.290;2024-02-15T14:27:42;20.42;;;19.23;;
25231;SDS011;13176;51.140;6.290;2024-02-15T14:30:09;19.10;;;18.10;;
25231;SDS011;13176;51.140;6.290;2024-02-15T14:32:55;19.20;;;17.92;;
25231;SDS011;13176;51.140;6.290;2024-02-15T14:35:32;20.02;;;18.67;;
25231;SDS011;13176;51.140;6.290;2024-02-15T14:40:35;20.48;;;19.15;;
25231;SDS011;13176;51.140;6.290;2024-02-15T14:43:11;19.02;;;17.98;;
25231;SDS011;13176;51.140;6.290;2024-02-15T14:45:45;19.15;;;17.92;;
25231;SDS011;13176;51.140;6.290;2024-02-15T14:48:12;19.30;;;18.23;;
25231;SDS011;13176;51.140;6.290;2024-02-15T14:50:40;18.73;;;17.73;;
25231;SDS011;13176;51.140;6.290;2024-02-15T14:53:07;20.85;;;19.65;;
25231;SDS011;13176;51.140;6.290;2024-02-15T14:55:34;21.42;;;20.33;;
25231;SDS011;13176;51.140;6.290;2024-02-15T14:58:08;24.48;;;23.02;;
25231;SDS011;13176;51.140;6.290;2024-02-15T15:00:39;22.88;;;21.60;;